Time;durP1;ratioP1;P1;durP2;ratioP2;P2;SDS_P1;SDS_P2;PMS_P1;PMS_P2;Temp;Humidity;BMP_temperature;BMP_pressure;BME280_temperature;BME280_humidity;BME280_pressure;Samples;Min_cycle;Max_cycle;Signal;HPM_P1;HPM_P2
2023/01/23 00:01:16;;;;;;;1.90;1.02;;;25.00;99.90;;;;;;5085404;28;20276;-63
2023/01/23 00:03:43;;;;;;;2.10;0.80;;;25.40;99.90;;;;;;5083711;28;20100;-64
2023/01/23 00:06:15;;;;;;;1.15;0.43;;;25.70;99.90;;;;;;5088198;28;20027;-62
2023/01/23 00:08:43;;;;;;;5.38;0.95;;;26.10;99.90;;;;;;5088526;28;20016;-64
2023/01/23 00:11:13;;;;;;;1.48;0.73;;;26.70;99.90;;;;;;5080683;28;20472;-64
2023/01/23 00:13:40;;;;;;;0.70;0.50;;;27.10;99.90;;;;;;5086271;28;20395;-66
2023/01/23 00:16:10;;;;;;;3.00;0.63;;;26.80;99.90;;;;;;5079711;28;20020;-62
2023/01/23 00:18:37;;;;;;;2.97;0.70;;;26.40;99.90;;;;;;5083711;28;20028;-64
2023/01/23 00:21:05;;;;;;;2.80;0.50;;;26.20;99.90;;;;;;5081522;28;20076;-64
2023/01/23 00:23:33;;;;;;;3.58;0.60;;;26.00;99.90;;;;;;5083263;28;20020;-63
2023/01/23 00:26:10;;;;;;;1.25;0.50;;;26.00;99.90;;;;;;5084477;28;20106;-66
2023/01/23 00:28:39;;;;;;;2.63;0.88;;;25.80;99.90;;;;;;5084818;28;20510;-67
2023/01/23 00:31:10;;;;;;;1.55;0.47;;;25.80;99.90;;;;;;5087548;28;20556;-67
2023/01/23 00:33:41;;;;;;;1.92;0.22;;;26.00;99.90;;;;;;5086805;28;20068;-66
2023/01/23 00:36:09;;;;;;;0.68;0.43;;;26.40;99.90;;;;;;5083399;28;20225;-63
2023/01/23 00:38:36;;;;;;;0.65;0.30;;;26.30;99.90;;;;;;5085127;28;20032;-62
2023/01/23 00:41:03;;;;;;;0.82;0.50;;;26.00;99.70;;;;;;5087820;28;20418;-62
2023/01/23 00:43:30;;;;;;;1.23;0.50;;;26.00;99.60;;;;;;5087703;28;20459;-61
2023/01/23 00:45:58;;;;;;;1.10;0.50;;;25.80;99.80;;;;;;5068755;28;20020;-62
2023/01/23 00:48:25;;;;;;;1.70;0.68;;;25.80;99.60;;;;;;5085736;28;20035;-64
2023/01/23 00:50:53;;;;;;;1.35;0.45;;;25.80;99.90;;;;;;5087727;28;20020;-64
2023/01/23 00:53:20;;;;;;;2.00;1.15;;;26.40;99.90;;;;;;5087356;28;20031;-62
2023/01/23 00:55:47;;;;;;;1.48;0.47;;;27.00;99.20;;;;;;5087355;28;20455;-63
2023/01/23 00:58:14;;;;;;;1.45;0.60;;;27.50;98.90;;;;;;5086273;28;20051;-64
2023/01/23 01:00:41;;;;;;;1.83;0.40;;;27.60;98.30;;;;;;5087465;28;20020;-64
2023/01/23 01:03:08;;;;;;;1.27;0.38;;;27.40;98.60;;;;;;5084348;28;20485;-64
2023/01/23 01:05:36;;;;;;;1.45;0.35;;;27.40;97.40;;;;;;5086095;28;20107;-64
2023/01/23 01:08:03;;;;;;;1.08;0.50;;;27.20;98.10;;;;;;5087370;28;20438;-63
2023/01/23 01:10:31;;;;;;;0.88;0.40;;;27.10;98.00;;;;;;5086832;28;20103;-64
2023/01/23 01:13:00;;;;;;;0.60;0.35;;;27.10;97.50;;;;;;5079693;28;20112;-65
2023/01/23 01:15:27;;;;;;;0.95;0.30;;;27.00;97.60;;;;;;5080538;28;20461;-67
2023/01/23 01:17:55;;;;;;;0.65;0.28;;;27.00;97.60;;;;;;5084193;28;20024;-63
2023/01/23 01:20:24;;;;;;;1.30;0.73;;;27.20;97.70;;;;;;5082898;28;20024;-65
2023/01/23 01:22:53;;;;;;;1.90;0.45;;;27.40;97.80;;;;;;5084934;28;20096;-65
2023/01/23 01:25:20;;;;;;;0.35;0.28;;;27.50;97.80;;;;;;5064485;28;20028;-62
2023/01/23 01:27:47;;;;;;;1.02;0.50;;;27.60;98.30;;;;;;5086461;28;20357;-62
2023/01/23 01:30:15;;;;;;;1.63;0.40;;;27.90;98.30;;;;;;5084310;28;20085;-63
2023/01/23 01:32:46;;;;;;;0.70;0.22;;;28.30;97.80;;;;;;5067097;28;20502;-67
2023/01/23 01:35:12;;;;;;;3.45;1.23;;;28.50;97.00;;;;;;5082161;28;20043;-65
2023/01/23 01:37:41;;;;;;;0.77;0.47;;;28.40;97.70;;;;;;5086775;28;20016;-65
2023/01/23 01:40:11;;;;;;;0.80;0.50;;;28.70;97.20;;;;;;5084417;28;20043;-64
2023/01/23 01:42:59;;;;;;;2.25;0.50;;;29.00;97.80;;;;;;5084749;28;20069;-64
2023/01/23 01:46:02;;;;;;;1.83;0.30;;;29.30;96.30;;;;;;5086924;28;20153;-64
2023/01/23 01:48:37;;;;;;;2.15;0.73;;;29.10;95.80;;;;;;5083479;28;20034;-63
2023/01/23 01:51:23;;;;;;;2.05;0.30;;;29.20;94.30;;;;;;5083854;28;20020;-62
2023/01/23 01:54:15;;;;;;;2.13;0.60;;;29.10;95.00;;;;;;5083895;28;20036;-62
2023/01/23 01:56:58;;;;;;;2.70;0.43;;;29.10;94.90;;;;;;4979514;28;20053;-64
2023/01/23 01:59:29;;;;;;;0.38;0.30;;;29.10;95.90;;;;;;4982060;28;20213;-65
2023/01/23 02:02:11;;;;;;;1.08;0.45;;;29.50;95.00;;;;;;4985372;28;20625;-62
2023/01/23 02:04:46;;;;;;;1.20;0.60;;;29.50;95.30;;;;;;4985777;28;20026;-65
2023/01/23 02:07:27;;;;;;;3.30;0.50;;;29.40;96.00;;;;;;4980433;28;20070;-64
2023/01/23 02:09:54;;;;;;;2.28;0.50;;;29.30;94.10;;;;;;4985253;28;20042;-66
2023/01/23 02:12:22;;;;;;;2.28;0.70;;;29.10;94.90;;;;;;4984426;28;20514;-67
2023/01/23 02:14:49;;;;;;;0.90;0.60;;;28.90;95.20;;;;;;4985588;28;20038;-64
2023/01/23 02:17:15;;;;;;;2.60;0.80;;;28.50;95.70;;;;;;4982217;28;20062;-65
2023/01/23 02:19:58;;;;;;;3.75;0.85;;;28.30;96.50;;;;;;4984744;28;20065;-66
2023/01/23 02:22:31;;;;;;;2.08;0.77;;;28.20;96.70;;;;;;4980478;28;20154;-67
2023/01/23 02:25:22;;;;;;;1.33;0.55;;;27.60;98.00;;;;;;4980703;28;20042;-68
2023/01/23 02:27:49;;;;;;;1.20;0.63;;;27.10;99.40;;;;;;4980789;28;20637;-66
2023/01/23 02:30:19;;;;;;;1.92;0.90;;;27.10;99.30;;;;;;4985657;28;20487;-64
2023/01/23 02:32:46;;;;;;;2.00;0.85;;;27.30;97.90;;;;;;4985127;28;20077;-68
2023/01/23 02:35:27;;;;;;;2.58;0.88;;;27.80;98.70;;;;;;5064429;28;20028;-67
2023/01/23 02:38:01;;;;;;;3.47;0.80;;;28.10;97.60;;;;;;5066548;28;20132;-69
2023/01/23 02:40:40;;;;;;;5.88;1.58;;;27.80;99.20;;;;;;5067985;28;20021;-67
2023/01/23 02:43:15;;;;;;;1.77;0.60;;;27.80;99.20;;;;;;5061546;28;20751;-69
2023/01/23 02:45:42;;;;;;;2.95;1.00;;;28.00;98.20;;;;;;5062226;28;20104;-69
2023/01/23 02:48:09;;;;;;;1.65;0.80;;;28.20;98.30;;;;;;5063903;28;20162;-66
2023/01/23 02:50:36;;;;;;;1.35;0.70;;;28.10;98.00;;;;;;5060498;28;20122;-69
2023/01/23 02:53:04;;;;;;;2.92;1.10;;;28.20;97.40;;;;;;5063031;28;20436;-71
2023/01/23 02:55:32;;;;;;;1.92;0.60;;;28.50;97.10;;;;;;5063792;28;20040;-66
2023/01/23 03:00:46;;;;;;;2.92;0.80;;;28.90;96.80;;;;;;5062124;28;20040;-67
2023/01/23 03:03:14;;;;;;;4.60;1.05;;;29.30;96.70;;;;;;5066012;28;20047;-64
2023/01/23 03:05:41;;;;;;;3.58;0.68;;;29.60;96.00;;;;;;5061098;28;20019;-68
2023/01/23 03:08:08;;;;;;;4.20;0.73;;;29.40;95.80;;;;;;5061403;28;20025;-65
2023/01/23 03:10:35;;;;;;;1.30;0.70;;;29.50;97.10;;;;;;5065983;28;20043;-65
2023/01/23 03:13:06;;;;;;;1.38;0.57;;;29.70;95.00;;;;;;5066519;28;20132;-67
2023/01/23 03:15:37;;;;;;;2.75;0.88;;;30.20;95.20;;;;;;5066154;28;20009;-63
2023/01/23 03:18:04;;;;;;;1.80;0.93;;;29.70;94.90;;;;;;5063998;28;20025;-63
2023/01/23 03:20:39;;;;;;;3.35;2.10;;;28.90;96.20;;;;;;5065349;28;20451;-65
2023/01/23 03:23:06;;;;;;;2.72;1.50;;;29.10;97.40;;;;;;5084456;28;20103;-63
2023/01/23 03:25:33;;;;;;;3.58;1.00;;;29.90;97.50;;;;;;5084031;28;20022;-64
2023/01/23 03:28:00;;;;;;;2.42;0.77;;;30.30;95.20;;;;;;5084473;28;20024;-65
2023/01/23 03:30:27;;;;;;;3.50;0.77;;;30.60;95.60;;;;;;5083241;28;20081;-65
2023/01/23 03:32:54;;;;;;;2.75;0.85;;;31.00;94.30;;;;;;5083580;28;20024;-65
2023/01/23 03:35:20;;;;;;;3.63;0.90;;;31.20;95.80;;;;;;5083168;28;20016;-65
2023/01/23 03:37:48;;;;;;;2.13;0.80;;;31.50;93.50;;;;;;5086764;28;20476;-63
2023/01/23 03:43:06;;;;;;;1.95;1.13;;;31.50;93.80;;;;;;5088247;28;20077;-65
2023/01/23 03:45:33;;;;;;;3.10;1.20;;;31.80;92.60;;;;;;5086259;28;20113;-63
2023/01/23 03:48:00;;;;;;;2.00;0.80;;;31.40;93.70;;;;;;5087387;28;20027;-63
2023/01/23 03:50:27;;;;;;;1.83;0.40;;;31.10;94.10;;;;;;5087494;28;20024;-64
2023/01/23 03:52:54;;;;;;;3.58;0.98;;;30.50;93.50;;;;;;5086316;28;20024;-65
2023/01/23 03:55:21;;;;;;;4.38;1.23;;;30.20;94.80;;;;;;5086765;28;20571;-62
2023/01/23 03:57:48;;;;;;;2.63;0.80;;;30.10;94.20;;;;;;5087400;28;20081;-62
2023/01/23 04:00:16;;;;;;;2.25;1.02;;;30.30;93.60;;;;;;5084259;28;20053;-63
2023/01/23 04:02:43;;;;;;;3.65;2.13;;;31.20;93.70;;;;;;5086327;28;20020;-65
2023/01/23 04:05:10;;;;;;;1.40;0.43;;;32.10;94.50;;;;;;5086551;28;20415;-64
2023/01/23 04:07:37;;;;;;;2.38;0.82;;;32.40;92.20;;;;;;5086854;28;20090;-63
2023/01/23 04:10:04;;;;;;;3.75;0.95;;;32.10;92.50;;;;;;5086807;28;20020;-66
2023/01/23 04:12:31;;;;;;;2.03;0.80;;;31.10;92.90;;;;;;5086561;28;20051;-65
2023/01/23 04:14:58;;;;;;;1.27;0.70;;;30.40;93.40;;;;;;5086893;28;20032;-64
2023/01/23 04:17:25;;;;;;;2.55;0.75;;;30.70;93.60;;;;;;5087066;28;20085;-66
2023/01/23 04:19:52;;;;;;;1.80;0.93;;;31.30;93.10;;;;;;5084247;28;20063;-65
2023/01/23 04:22:19;;;;;;;1.67;0.63;;;31.30;92.40;;;;;;5085800;28;20052;-66
2023/01/23 04:24:45;;;;;;;2.38;0.75;;;31.50;93.10;;;;;;5066520;28;20408;-64
2023/01/23 04:27:12;;;;;;;1.48;0.73;;;31.70;91.40;;;;;;5082564;28;20043;-67
2023/01/23 04:29:39;;;;;;;4.40;1.00;;;31.00;92.80;;;;;;5083549;28;20715;-69
2023/01/23 04:32:08;;;;;;;1.52;0.70;;;30.50;93.30;;;;;;5088701;28;20521;-64
2023/01/23 04:34:35;;;;;;;2.35;0.80;;;30.10;94.30;;;;;;5082229;28;20039;-64
2023/01/23 04:37:02;;;;;;;1.98;1.10;;;30.50;94.10;;;;;;5080279;28;20086;-64
2023/01/23 04:39:30;;;;;;;3.65;0.82;;;31.00;93.50;;;;;;5081189;28;20020;-64
2023/01/23 04:41:57;;;;;;;2.80;0.90;;;31.00;93.60;;;;;;5086537;28;20380;-64
2023/01/23 04:44:25;;;;;;;2.83;0.88;;;30.10;94.60;;;;;;5084588;28;20032;-64
2023/01/23 04:46:53;;;;;;;2.20;0.90;;;29.50;95.50;;;;;;5082692;28;20016;-65
2023/01/23 04:49:21;;;;;;;2.53;1.00;;;28.90;95.40;;;;;;5085054;28;20480;-64
2023/01/23 04:51:49;;;;;;;2.72;1.55;;;28.20;97.00;;;;;;5085263;28;20055;-65
2023/01/23 04:54:16;;;;;;;2.83;0.80;;;28.10;98.00;;;;;;5090549;28;20104;-65
2023/01/23 04:56:44;;;;;;;4.82;0.90;;;27.70;98.20;;;;;;5083976;28;20244;-65
2023/01/23 04:59:11;;;;;;;2.53;0.90;;;27.60;98.00;;;;;;5084502;28;20040;-63
2023/01/23 05:01:38;;;;;;;3.15;0.90;;;27.30;97.80;;;;;;5082518;28;20028;-64
2023/01/23 05:04:05;;;;;;;4.03;1.38;;;27.40;97.70;;;;;;5087375;28;20471;-65
2023/01/23 05:06:32;;;;;;;2.67;0.98;;;27.40;98.00;;;;;;5089413;28;20028;-64
2023/01/23 05:08:59;;;;;;;2.22;0.88;;;27.70;98.40;;;;;;5084689;28;20455;-65
2023/01/23 05:11:26;;;;;;;2.00;0.88;;;27.80;97.30;;;;;;5087003;28;20032;-66
2023/01/23 05:13:53;;;;;;;2.70;1.00;;;27.60;97.50;;;;;;5083663;28;20047;-63
2023/01/23 05:16:20;;;;;;;4.22;1.00;;;27.40;98.10;;;;;;5086656;28;20115;-63
2023/01/23 05:18:46;;;;;;;2.92;1.08;;;27.30;98.20;;;;;;5082462;28;20016;-69
2023/01/23 05:21:13;;;;;;;3.42;1.10;;;27.10;97.90;;;;;;5084466;28;20044;-70
2023/01/23 05:23:40;;;;;;;2.72;0.70;;;27.00;98.50;;;;;;5081658;28;20499;-64
2023/01/23 05:26:07;;;;;;;1.77;0.90;;;26.70;99.20;;;;;;5086259;28;20011;-66
2023/01/23 05:28:34;;;;;;;2.78;1.02;;;26.70;99.40;;;;;;5083285;28;20030;-70
2023/01/23 05:31:03;;;;;;;4.50;1.13;;;26.40;99.40;;;;;;5081702;28;20078;-70
2023/01/23 05:33:29;;;;;;;3.22;1.10;;;26.30;99.30;;;;;;5083774;28;20028;-64
2023/01/23 05:36:00;;;;;;;2.92;0.82;;;26.20;99.60;;;;;;5090094;28;20020;-66
2023/01/23 05:38:27;;;;;;;2.13;0.90;;;26.10;99.90;;;;;;5087452;28;20078;-66
2023/01/23 05:40:54;;;;;;;3.25;0.85;;;26.10;99.90;;;;;;5087232;28;20032;-64
2023/01/23 05:43:24;;;;;;;6.70;1.58;;;26.20;99.90;;;;;;5086843;28;20137;-66
2023/01/23 05:45:51;;;;;;;2.40;1.08;;;26.30;99.90;;;;;;5084185;28;20082;-70
2023/01/23 05:48:18;;;;;;;3.97;1.08;;;26.50;99.90;;;;;;5078140;28;20042;-65
2023/01/23 05:50:45;;;;;;;4.88;1.23;;;26.50;99.90;;;;;;5086548;28;20043;-66
2023/01/23 05:53:12;;;;;;;3.45;0.90;;;26.50;99.50;;;;;;5087100;28;20494;-66
2023/01/23 05:55:39;;;;;;;3.13;0.98;;;26.20;99.90;;;;;;5082434;28;20032;-66
2023/01/23 05:58:06;;;;;;;5.70;1.20;;;26.30;99.90;;;;;;5083609;28;20024;-71
2023/01/23 06:00:33;;;;;;;2.22;0.68;;;26.20;99.90;;;;;;5092708;28;20031;-70
2023/01/23 06:03:01;;;;;;;4.38;1.65;;;26.20;99.90;;;;;;5087938;28;20031;-70
2023/01/23 06:05:28;;;;;;;2.95;1.48;;;26.50;99.70;;;;;;5090207;28;20155;-67
2023/01/23 06:07:55;;;;;;;3.17;0.93;;;26.60;99.90;;;;;;5089151;28;20024;-65
2023/01/23 06:10:22;;;;;;;3.97;0.90;;;26.60;99.70;;;;;;5083353;28;20064;-67
2023/01/23 06:12:49;;;;;;;3.85;0.85;;;26.40;99.40;;;;;;5080712;28;20024;-70
2023/01/23 06:15:16;;;;;;;2.55;0.70;;;26.10;99.50;;;;;;5077911;28;20032;-66
2023/01/23 06:17:43;;;;;;;1.10;0.70;;;25.90;99.90;;;;;;5083774;28;20028;-69
2023/01/23 06:20:11;;;;;;;1.27;0.77;;;25.90;99.90;;;;;;5086248;28;20024;-66
2023/01/23 06:22:38;;;;;;;1.30;0.60;;;25.70;99.90;;;;;;5082185;28;20040;-66
2023/01/23 06:25:05;;;;;;;3.25;0.93;;;25.80;99.90;;;;;;5083626;28;20252;-71
2023/01/23 06:27:32;;;;;;;1.58;0.70;;;26.00;99.90;;;;;;5083184;28;20016;-67
2023/01/23 06:29:59;;;;;;;1.25;0.80;;;26.10;99.40;;;;;;5088409;28;20034;-65
2023/01/23 06:32:26;;;;;;;2.63;0.70;;;26.20;99.90;;;;;;5082395;28;20102;-70
2023/01/23 06:34:53;;;;;;;3.78;0.73;;;26.40;99.90;;;;;;5070518;28;20054;-67
2023/01/23 06:37:20;;;;;;;5.00;1.40;;;26.60;99.90;;;;;;5079195;28;20539;-69
2023/01/23 06:39:47;;;;;;;5.30;1.33;;;26.70;99.90;;;;;;5083209;28;20445;-74
2023/01/23 06:42:14;;;;;;;6.40;1.67;;;26.80;99.90;;;;;;5084740;28;20032;-67
2023/01/23 06:44:42;;;;;;;6.55;1.90;;;27.10;99.90;;;;;;5080873;28;20115;-68
2023/01/23 06:47:09;;;;;;;4.25;1.15;;;27.50;99.90;;;;;;5085477;28;20052;-68
2023/01/23 06:49:35;;;;;;;3.15;1.13;;;28.50;99.10;;;;;;5077669;28;20012;-68
2023/01/23 06:52:03;;;;;;;2.42;1.30;;;29.80;98.10;;;;;;5081642;28;20553;-67
2023/01/23 06:54:30;;;;;;;3.80;1.08;;;30.40;95.90;;;;;;5084338;28;20028;-68
2023/01/23 06:56:56;;;;;;;3.35;1.08;;;30.70;96.30;;;;;;5086234;28;20082;-70
2023/01/23 06:59:23;;;;;;;1.85;0.70;;;30.40;95.50;;;;;;5083256;28;20675;-69
2023/01/23 07:01:52;;;;;;;1.73;0.80;;;29.60;95.70;;;;;;5088791;28;20046;-71
2023/01/23 07:04:19;;;;;;;2.25;0.95;;;29.00;97.80;;;;;;5085512;28;20028;-69
2023/01/23 07:06:45;;;;;;;5.10;0.77;;;28.60;96.60;;;;;;5085807;28;20020;-69
2023/01/23 07:09:12;;;;;;;1.48;0.80;;;29.00;96.70;;;;;;5040661;28;20044;-72
2023/01/23 07:11:40;;;;;;;3.25;0.77;;;28.70;97.00;;;;;;5045483;28;20489;-70
2023/01/23 07:14:07;;;;;;;3.13;1.50;;;28.10;98.20;;;;;;5044068;28;20460;-74
2023/01/23 07:16:35;;;;;;;3.20;1.13;;;27.50;98.80;;;;;;5049537;28;20029;-68
2023/01/23 07:19:04;;;;;;;3.63;1.20;;;26.90;99.90;;;;;;5044940;28;20630;-69
2023/01/23 07:21:31;;;;;;;3.55;0.95;;;26.40;99.90;;;;;;5039103;28;20573;-69
2023/01/23 07:23:58;;;;;;;6.28;0.82;;;26.10;99.90;;;;;;5026443;28;20029;-69
2023/01/23 07:26:25;;;;;;;4.10;0.90;;;26.00;99.90;;;;;;5049708;28;20028;-69
2023/01/23 07:28:52;;;;;;;7.00;1.50;;;25.80;99.90;;;;;;5034995;28;20412;-75
2023/01/23 07:31:19;;;;;;;3.95;1.85;;;25.70;99.90;;;;;;5047939;28;20185;-69
2023/01/23 07:33:46;;;;;;;3.22;1.77;;;25.80;99.90;;;;;;5026311;28;20062;-70
2023/01/23 07:36:13;;;;;;;2.33;0.82;;;25.80;99.90;;;;;;5044183;28;20517;-70
2023/01/23 07:38:41;;;;;;;3.65;1.20;;;25.80;99.90;;;;;;5038548;28;20033;-71
2023/01/23 07:41:12;;;;;;;3.33;1.00;;;25.80;99.90;;;;;;5040012;28;20443;-70
2023/01/23 07:43:38;;;;;;;3.63;1.27;;;25.70;99.90;;;;;;5046734;28;20051;-73
2023/01/23 07:46:06;;;;;;;2.63;0.95;;;25.70;99.90;;;;;;5035916;28;20032;-69
2023/01/23 07:48:33;;;;;;;5.82;0.90;;;25.60;99.90;;;;;;5085275;28;20058;-74
2023/01/23 07:51:02;;;;;;;3.28;1.00;;;25.50;99.90;;;;;;5083233;28;20269;-69
2023/01/23 07:53:29;;;;;;;2.58;0.68;;;25.70;99.90;;;;;;5085296;28;20074;-70
2023/01/23 07:55:56;;;;;;;4.90;1.20;;;26.00;99.90;;;;;;5059849;28;20036;-70
2023/01/23 07:58:23;;;;;;;3.22;0.90;;;26.00;99.90;;;;;;5080721;28;20869;-69
2023/01/23 08:00:50;;;;;;;3.38;0.88;;;25.80;99.90;;;;;;5083668;28;20139;-68
2023/01/23 08:03:19;;;;;;;3.58;0.93;;;25.50;99.90;;;;;;5080848;28;20062;-68
2023/01/23 08:05:52;;;;;;;6.82;1.27;;;25.20;99.90;;;;;;5077563;28;20298;-69
2023/01/23 08:08:19;;;;;;;2.25;0.93;;;25.00;99.90;;;;;;5061618;28;20401;-69
2023/01/23 08:10:46;;;;;;;4.28;0.95;;;25.10;99.90;;;;;;5080235;28;20763;-74
2023/01/23 08:13:13;;;;;;;2.83;1.00;;;25.60;99.90;;;;;;5080367;28;20028;-70
2023/01/23 08:15:40;;;;;;;3.05;0.80;;;26.30;99.90;;;;;;5081138;28;20024;-74
2023/01/23 08:18:07;;;;;;;3.00;0.80;;;26.60;99.90;;;;;;5079068;28;20587;-68
2023/01/23 08:20:34;;;;;;;1.52;0.70;;;26.40;99.90;;;;;;5077751;28;20118;-70
2023/01/23 08:23:01;;;;;;;2.50;0.90;;;26.10;99.90;;;;;;5087513;28;20103;-71
2023/01/23 08:25:28;;;;;;;3.05;1.30;;;25.80;99.90;;;;;;5085908;28;20511;-70
2023/01/23 08:27:55;;;;;;;3.50;1.05;;;25.50;99.90;;;;;;5080776;28;20103;-71
2023/01/23 08:30:22;;;;;;;2.47;0.80;;;25.30;99.90;;;;;;5076708;28;20484;-72
2023/01/23 08:32:49;;;;;;;6.32;1.00;;;25.10;99.90;;;;;;5075209;28;20110;-72
2023/01/23 08:35:15;;;;;;;2.83;0.80;;;25.20;99.90;;;;;;5086932;28;20031;-71
2023/01/23 08:37:42;;;;;;;2.95;0.80;;;25.10;99.90;;;;;;5084990;28;20020;-71
2023/01/23 08:40:10;;;;;;;1.13;0.73;;;24.90;99.90;;;;;;5084652;28;20032;-76
2023/01/23 08:42:40;;;;;;;2.88;0.82;;;24.60;99.90;;;;;;5071201;28;20484;-69
2023/01/23 08:45:07;;;;;;;1.92;0.70;;;24.30;99.90;;;;;;5077711;28;20407;-71
2023/01/23 08:47:35;;;;;;;4.47;0.95;;;24.10;99.90;;;;;;5077677;28;20493;-70
2023/01/23 08:50:04;;;;;;;2.97;0.95;;;24.00;99.90;;;;;;5078629;28;20028;-71
2023/01/23 08:52:32;;;;;;;3.38;1.38;;;23.90;99.90;;;;;;5080487;28;20773;-71
2023/01/23 08:55:02;;;;;;;3.58;1.23;;;23.80;99.90;;;;;;5080473;28;20063;-72
2023/01/23 08:57:29;;;;;;;1.90;1.00;;;23.80;99.90;;;;;;5081533;28;20020;-69
2023/01/23 08:59:57;;;;;;;3.78;1.20;;;23.60;99.90;;;;;;5075934;28;20043;-70
2023/01/23 09:02:24;;;;;;;2.30;0.88;;;23.60;99.90;;;;;;5074282;28;20378;-71
2023/01/23 09:04:51;;;;;;;3.50;1.33;;;23.50;99.90;;;;;;5076205;28;20029;-71
2023/01/23 09:07:18;;;;;;;2.05;0.95;;;23.40;99.90;;;;;;5077704;28;20052;-71
2023/01/23 09:09:45;;;;;;;2.78;1.05;;;23.30;99.90;;;;;;5076616;28;20028;-72
2023/01/23 09:12:12;;;;;;;4.47;1.30;;;23.30;99.90;;;;;;5082744;28;20028;-72
2023/01/23 09:14:39;;;;;;;3.40;0.70;;;23.20;99.90;;;;;;5060376;28;20085;-71
2023/01/23 09:17:06;;;;;;;4.03;1.00;;;23.10;99.90;;;;;;5076846;28;20086;-70
2023/01/23 09:19:33;;;;;;;3.53;1.40;;;23.10;99.90;;;;;;5074176;28;20047;-70
2023/01/23 09:22:00;;;;;;;3.45;0.80;;;23.00;99.90;;;;;;5071038;28;20050;-70
2023/01/23 09:24:27;;;;;;;4.82;1.10;;;23.00;99.90;;;;;;5058895;28;20097;-71
2023/01/23 09:26:54;;;;;;;5.40;1.20;;;22.80;99.90;;;;;;5075760;28;20178;-68
2023/01/23 09:29:21;;;;;;;5.70;0.88;;;22.70;99.90;;;;;;5074629;28;20448;-71
2023/01/23 09:31:48;;;;;;;6.10;1.23;;;22.60;99.90;;;;;;5080936;28;20362;-70
2023/01/23 09:34:15;;;;;;;4.88;1.10;;;22.60;99.90;;;;;;5085806;28;20535;-67
2023/01/23 09:36:42;;;;;;;1.58;0.73;;;22.50;99.90;;;;;;5081029;28;20024;-70
2023/01/23 09:39:09;;;;;;;1.95;0.80;;;22.40;99.90;;;;;;5070572;28;20047;-72
2023/01/23 09:41:38;;;;;;;5.80;0.90;;;22.30;99.90;;;;;;5055750;28;20101;-69
2023/01/23 09:44:16;;;;;;;3.83;0.90;;;22.30;99.90;;;;;;5074889;28;20031;-67
2023/01/23 09:47:01;;;;;;;4.57;1.08;;;22.30;99.90;;;;;;5080421;28;20076;-71
2023/01/23 09:49:42;;;;;;;2.75;0.75;;;22.30;99.90;;;;;;5080482;28;20016;-73
2023/01/23 09:52:37;;;;;;;2.72;0.80;;;22.20;99.90;;;;;;5071447;28;20428;-72
2023/01/23 09:55:16;;;;;;;1.55;0.63;;;22.20;99.90;;;;;;5070571;28;20036;-68
2023/01/23 09:57:49;;;;;;;4.90;0.80;;;22.00;99.90;;;;;;5076863;28;20066;-67
2023/01/23 10:00:40;;;;;;;5.35;1.05;;;22.00;99.90;;;;;;5076633;28;20023;-68
2023/01/23 10:03:15;;;;;;;5.15;1.40;;;21.90;99.90;;;;;;5076693;28;20036;-70
2023/01/23 10:06:06;;;;;;;4.38;0.77;;;21.80;99.90;;;;;;5079702;28;20028;-69
2023/01/23 10:08:42;;;;;;;3.55;1.05;;;21.80;99.90;;;;;;5082831;28;20051;-71
2023/01/23 10:11:27;;;;;;;6.50;1.10;;;21.70;99.90;;;;;;5077221;28;20028;-69
2023/01/23 10:14:06;;;;;;;4.40;1.00;;;21.70;99.90;;;;;;5073718;28;20024;-67
2023/01/23 10:16:41;;;;;;;6.10;1.10;;;21.60;99.90;;;;;;5079199;28;20063;-71
2023/01/23 10:19:25;;;;;;;5.07;1.42;;;21.60;99.90;;;;;;5074373;28;20039;-67
2023/01/23 10:22:33;;;;;;;6.13;1.35;;;21.50;99.90;;;;;;5079560;22;20800;-67
2023/01/23 10:25:21;;;;;;;3.38;1.20;;;21.60;99.90;;;;;;5025077;28;20057;-69
2023/01/23 10:27:50;;;;;;;3.10;0.60;;;21.50;99.90;;;;;;5039448;28;20025;-65
2023/01/23 10:30:19;;;;;;;3.17;0.77;;;21.40;99.90;;;;;;5043942;28;20036;-70
2023/01/23 10:32:56;;;;;;;5.15;1.42;;;21.40;99.90;;;;;;5040976;28;20170;-66
2023/01/23 10:35:43;;;;;;;4.80;0.60;;;21.40;99.90;;;;;;5038659;28;20017;-68
2023/01/23 10:38:30;;;;;;;4.47;1.00;;;21.30;99.90;;;;;;5040485;28;20513;-65
2023/01/23 10:41:13;;;;;;;2.00;0.77;;;21.20;99.90;;;;;;5041805;28;20028;-69
2023/01/23 10:43:41;;;;;;;3.25;0.80;;;21.20;99.90;;;;;;5042339;28;20067;-69
2023/01/23 10:46:12;;;;;;;3.88;1.10;;;21.10;99.90;;;;;;5037592;28;20029;-72
2023/01/23 10:48:41;;;;;;;3.05;0.80;;;21.20;99.90;;;;;;5041896;28;20261;-69
2023/01/23 10:51:31;;;;;;;4.25;0.73;;;21.20;99.90;;;;;;5040640;28;20464;-71
2023/01/23 10:54:14;;;;;;;3.08;0.52;;;21.30;99.90;;;;;;5041534;28;20456;-67
2023/01/23 10:57:00;;;;;;;2.88;0.93;;;21.50;99.90;;;;;;5040774;28;20025;-71
2023/01/23 10:59:38;;;;;;;4.00;1.25;;;21.50;99.90;;;;;;5043976;28;20040;-69
2023/01/23 11:02:14;;;;;;;4.10;0.98;;;21.70;99.90;;;;;;5041320;28;20412;-69
2023/01/23 11:04:44;;;;;;;2.78;0.90;;;21.60;99.90;;;;;;5039568;28;20059;-67
2023/01/23 11:07:21;;;;;;;3.85;1.15;;;21.80;99.90;;;;;;5041874;28;20056;-69
2023/01/23 11:09:51;;;;;;;3.25;0.93;;;21.90;99.90;;;;;;5037800;28;20025;-65
2023/01/23 11:12:24;;;;;;;4.05;0.90;;;21.90;99.90;;;;;;5038062;28;20140;-68
2023/01/23 11:15:10;;;;;;;3.22;1.08;;;22.00;99.90;;;;;;5040060;28;20029;-68
2023/01/23 11:17:38;;;;;;;4.90;1.20;;;21.90;99.90;;;;;;5041089;28;20065;-67
2023/01/23 11:20:36;;;;;;;4.63;1.33;;;21.80;99.90;;;;;;5040775;28;20024;-69
2023/01/23 11:23:12;;;;;;;3.97;1.00;;;21.80;99.90;;;;;;5042430;28;20499;-70
2023/01/23 11:25:44;;;;;;;4.72;1.08;;;21.60;99.90;;;;;;5042213;28;20643;-73
2023/01/23 11:28:29;;;;;;;5.50;1.00;;;21.70;99.90;;;;;;5042290;28;20398;-66
2023/01/23 11:31:15;;;;;;;5.93;1.20;;;21.60;99.90;;;;;;5041189;28;20044;-67
2023/01/23 11:34:06;;;;;;;3.00;1.02;;;21.60;99.90;;;;;;5039145;28;20028;-69
2023/01/23 11:37:03;;;;;;;4.88;1.23;;;21.70;99.90;;;;;;5040690;28;20029;-69
2023/01/23 11:39:35;;;;;;;6.22;1.40;;;21.70;99.90;;;;;;5039511;28;20797;-67
2023/01/23 11:42:03;;;;;;;5.35;1.20;;;21.70;99.90;;;;;;5040964;28;20025;-67
2023/01/23 11:44:31;;;;;;;2.80;1.00;;;21.70;99.90;;;;;;5038996;28;20021;-68
2023/01/23 11:47:31;;;;;;;5.78;1.10;;;21.70;99.90;;;;;;5039649;28;20017;-69
2023/01/23 11:50:15;;;;;;;4.72;1.20;;;21.60;99.90;;;;;;5041500;28;20021;-69
2023/01/23 11:53:01;;;;;;;5.10;1.10;;;21.60;99.90;;;;;;5043374;28;20025;-69
2023/01/23 11:56:04;;;;;;;4.90;1.30;;;21.60;99.90;;;;;;5040247;28;20037;-68
2023/01/23 11:59:03;;;;;;;3.70;1.10;;;21.50;99.90;;;;;;4994184;28;20041;-69
2023/01/23 12:02:06;;;;;;;2.88;0.90;;;21.40;99.90;;;;;;4988536;28;20530;-69
2023/01/23 12:04:43;;;;;;;3.10;1.25;;;21.30;99.90;;;;;;5001773;28;20623;-69
2023/01/23 12:07:12;;;;;;;7.38;1.02;;;21.30;99.90;;;;;;5000533;28;20064;-68
2023/01/23 12:09:52;;;;;;;4.80;1.35;;;21.30;99.90;;;;;;4997905;28;20035;-70
2023/01/23 12:12:31;;;;;;;3.80;1.10;;;21.30;99.90;;;;;;5001393;28;20035;-69
2023/01/23 12:15:08;;;;;;;2.67;1.15;;;21.30;99.90;;;;;;4997910;28;20042;-68
2023/01/23 12:17:41;;;;;;;5.65;1.00;;;21.20;99.90;;;;;;5002073;28;20048;-69
2023/01/23 12:20:38;;;;;;;2.50;0.80;;;21.30;99.90;;;;;;4999668;28;20030;-70
2023/01/23 12:23:05;;;;;;;6.18;1.33;;;21.30;99.90;;;;;;5011984;28;20050;-66
2023/01/23 12:25:44;;;;;;;4.05;0.90;;;21.30;99.90;;;;;;5015322;28;20036;-67
2023/01/23 12:28:17;;;;;;;3.50;0.90;;;21.30;99.90;;;;;;5015167;28;20731;-66
2023/01/23 12:30:58;;;;;;;5.65;1.60;;;21.50;99.90;;;;;;5012156;28;20057;-66
2023/01/23 12:33:55;;;;;;;4.37;1.00;;;21.60;99.90;;;;;;5018615;28;20029;-67
2023/01/23 12:36:43;;;;;;;4.68;0.90;;;21.60;99.90;;;;;;5066390;28;20028;-69
2023/01/23 12:39:28;;;;;;;3.45;1.10;;;21.60;99.90;;;;;;5065682;28;20016;-67
2023/01/23 12:42:10;;;;;;;4.97;1.05;;;21.40;99.90;;;;;;5068865;28;20021;-70
2023/01/23 12:44:44;;;;;;;6.18;1.15;;;21.30;99.90;;;;;;5068708;28;20032;-68
2023/01/23 12:47:19;;;;;;;3.60;1.02;;;21.20;99.90;;;;;;5066032;28;20033;-71
2023/01/23 12:50:01;;;;;;;4.40;1.30;;;21.10;99.90;;;;;;5068290;28;20017;-70
2023/01/23 12:52:52;;;;;;;3.42;1.05;;;21.20;99.90;;;;;;5066912;28;20137;-69
2023/01/23 12:55:32;;;;;;;2.25;1.23;;;21.10;99.90;;;;;;5067408;28;20024;-67
2023/01/23 12:58:02;;;;;;;4.95;1.50;;;21.00;99.90;;;;;;5068202;28;20539;-67
2023/01/23 13:00:35;;;;;;;6.45;1.40;;;21.10;99.90;;;;;;5069294;28;20029;-71
2023/01/23 13:03:08;;;;;;;6.57;1.50;;;21.20;99.90;;;;;;5071235;28;20086;-67
2023/01/23 13:05:59;;;;;;;2.55;1.23;;;21.20;99.90;;;;;;5068346;28;20115;-69
2023/01/23 13:08:50;;;;;;;4.68;1.20;;;21.20;99.90;;;;;;5066111;28;20033;-68
2023/01/23 13:11:46;;;;;;;3.97;0.88;;;21.00;99.90;;;;;;5067496;28;20046;-67
2023/01/23 13:14:21;;;;;;;3.92;1.20;;;21.00;99.90;;;;;;5067243;28;20037;-72
2023/01/23 13:16:50;;;;;;;5.13;1.30;;;20.90;99.90;;;;;;5064858;28;20115;-73